Nesbit, MS (38651)

7:42 AM CST on February 07, 2016 (GMT -0600)
Skyler Estates | | Change Station
CLOSE
Current Station
Personal Weather Station
Location: Southaven, MS
Elevation: 375 ft
Nearby Weather Stations

Elev 375 ft 34.91 °N, 89.98 °W | Updated 6 minutes ago

Partly Cloudy
Partly Cloudy
33.0 °F
Feels Like 33 °F
N
3.0
Wind Variable Wind from ENE
Gusts 4.0 mph

Today
High -- | Low -- °F
--% Chance of Precip.
Yesterday
High -- | Low -- °F
Precip. -- in
Pressure 30.24 in
Visibility 10.0 miles
Clouds Few 25000 ft
Windchill 33 °F
Dew Point 27 °F
Humidity 77%
Rainfall 0.00 in
Snow Depth Not available.
6:54 AM 5:34 PM
Waning Crescent, 1% visible
METAR KMEM 071254Z 00000KT 10SM FEW250 00/M05 A3023 RMK AO2 SLP239 T00001050
Pressure 30.24 in
Visibility 10.0 miles
Clouds Few 25000 ft
Windchill 33 °F
Dew Point 27 °F
Humidity 77%
Rainfall 0.00 in
Snow Depth Not available.
6:54 AM 5:34 PM
Waning Crescent, 1% visible
METAR KMEM 071254Z 00000KT 10SM FEW250 00/M05 A3023 RMK AO2 SLP239 T00001050

10-Day Weather Forecast

Almanac

Astronomy

Feb. 07, 2016 Rise Set
Actual Time
Civil Twilight
Nautical Twilight
Astronomical Twilight
Moon
Length of Visible Light
Length of Day
Tomorrow will be .
, % of the Moon is Illuminated

Today's Extremes

State Highs State Lows

Community

WunderPhotos

Upload Photos

1,891,190 photos uploaded!

WunderBlog® & News

Nearby

Air Quality

  Air Quality AQ Index Pollutant
Not available.

Snow Depth

Station Depth Elevation

Earthquake Activity

City Distance Mag. Time & Date
Minimum magnitude displayed is 2.5.

Coastal Water Temperatures

Place Temperature

Stations

Nearby Weather Stations

Station Location Temp. Windchill Dew Point Humidity Wind Precip. Elev Updated Type
                   

Watches & Warnings

There are currently no watches in effect.